Time;durP1;ratioP1;P1;durP2;ratioP2;P2;SDS_P1;SDS_P2;PMS_P1;PMS_P2;Temp;Humidity;BMP_temperature;BMP_pressure;BME280_temperature;BME280_humidity;BME280_pressure;Samples;Min_cycle;Max_cycle;Signal;HPM_P1;HPM_P2
2023/06/12 00:01:57;;;;;;;7.20;4.87;;;;;;;;;;4387171;32;20031;-78
2023/06/12 00:04:22;;;;;;;8.33;5.60;;;;;;;;;;4386589;32;20082;-80
2023/06/12 00:06:50;;;;;;;6.97;5.25;;;;;;;;;;4386625;32;20165;-81
2023/06/12 00:09:15;;;;;;;8.00;4.80;;;;;;;;;;4387682;32;20030;-79
2023/06/12 00:11:41;;;;;;;7.43;4.65;;;;;;;;;;4387066;32;20112;-81
2023/06/12 00:14:06;;;;;;;6.70;5.18;;;;;;;;;;4387865;32;20034;-81
2023/06/12 00:16:32;;;;;;;8.40;5.60;;;;;;;;;;4391738;32;20030;-79
2023/06/12 00:18:57;;;;;;;5.77;4.27;;;;;;;;;;4391452;32;20145;-78
2023/06/12 00:21:25;;;;;;;6.95;4.90;;;;;;;;;;4385513;32;20217;-79
2023/06/12 00:23:50;;;;;;;8.25;4.68;;;;;;;;;;4387432;32;20429;-80
2023/06/12 00:26:15;;;;;;;9.60;5.35;;;;;;;;;;4394369;32;20037;-79
2023/06/12 00:28:40;;;;;;;6.93;5.22;;;;;;;;;;4396738;32;20094;-82
2023/06/12 00:31:06;;;;;;;9.27;5.63;;;;;;;;;;4388824;32;20035;-81
2023/06/12 00:33:31;;;;;;;7.62;4.95;;;;;;;;;;4390293;32;20429;-81
2023/06/12 00:35:56;;;;;;;6.70;4.93;;;;;;;;;;4389892;32;20027;-81
2023/06/12 00:38:21;;;;;;;9.18;4.97;;;;;;;;;;4390240;32;20057;-81
2023/06/12 00:40:47;;;;;;;9.77;5.87;;;;;;;;;;4391047;32;20042;-81
2023/06/12 00:43:13;;;;;;;6.50;4.90;;;;;;;;;;4390813;32;20031;-80
2023/06/12 00:45:38;;;;;;;9.38;5.15;;;;;;;;;;4390253;32;20027;-80
2023/06/12 00:48:05;;;;;;;7.90;4.72;;;;;;;;;;4390893;32;20027;-81
2023/06/12 00:50:30;;;;;;;8.00;4.30;;;;;;;;;;4390116;32;20053;-80
2023/06/12 00:52:56;;;;;;;13.43;5.20;;;;;;;;;;4389997;32;20098;-81
2023/06/12 00:55:22;;;;;;;6.35;5.05;;;;;;;;;;4390043;32;20099;-80
2023/06/12 00:57:47;;;;;;;7.62;5.32;;;;;;;;;;4388778;32;20486;-80
2023/06/12 01:00:14;;;;;;;7.10;4.65;;;;;;;;;;4389995;32;20103;-81
2023/06/12 01:02:42;;;;;;;10.57;5.35;;;;;;;;;;4381456;32;20421;-81
2023/06/12 01:05:10;;;;;;;6.65;4.85;;;;;;;;;;4390289;32;20049;-81
2023/06/12 01:07:38;;;;;;;10.90;5.10;;;;;;;;;;4388750;32;20053;-81
2023/06/12 01:10:22;;;;;;;7.32;4.30;;;;;;;;;;4390815;32;20450;-81
2023/06/12 01:12:47;;;;;;;9.88;4.93;;;;;;;;;;4392581;32;20449;-81
2023/06/12 01:15:14;;;;;;;6.20;4.85;;;;;;;;;;4391508;32;20134;-79
2023/06/12 01:17:40;;;;;;;5.90;4.50;;;;;;;;;;4394203;32;20081;-81
2023/06/12 01:20:06;;;;;;;9.68;5.20;;;;;;;;;;4392527;32;20043;-81
2023/06/12 01:22:32;;;;;;;8.57;5.20;;;;;;;;;;4392069;32;20119;-81
2023/06/12 01:25:16;;;;;;;8.77;4.75;;;;;;;;;;4391688;32;20365;-81
2023/06/12 01:27:53;;;;;;;6.75;4.80;;;;;;;;;;4391752;32;20228;-80
2023/06/12 01:30:18;;;;;;;7.62;5.00;;;;;;;;;;4393888;32;20035;-81
2023/06/12 01:32:47;;;;;;;7.60;5.55;;;;;;;;;;4392167;32;20145;-79
2023/06/12 01:35:22;;;;;;;4.90;4.40;;;;;;;;;;4392408;32;20056;-80
2023/06/12 01:37:49;;;;;;;9.87;4.60;;;;;;;;;;4400285;32;20061;-79
2023/06/12 01:40:15;;;;;;;8.57;4.70;;;;;;;;;;4409225;32;20129;-79
2023/06/12 01:42:40;;;;;;;8.20;4.95;;;;;;;;;;4409263;32;20397;-80
2023/06/12 01:45:06;;;;;;;7.07;5.10;;;;;;;;;;4408867;32;20023;-79
2023/06/12 01:47:31;;;;;;;9.27;5.30;;;;;;;;;;4406064;32;20084;-79
2023/06/12 01:49:56;;;;;;;7.07;5.15;;;;;;;;;;4394653;32;20027;-78
2023/06/12 01:52:21;;;;;;;6.53;4.85;;;;;;;;;;4395620;32;20065;-79
2023/06/12 01:54:49;;;;;;;7.65;4.57;;;;;;;;;;4399435;32;20430;-80
2023/06/12 01:57:15;;;;;;;5.60;4.72;;;;;;;;;;4397674;32;20034;-79
2023/06/12 01:59:41;;;;;;;7.80;5.10;;;;;;;;;;4395167;32;20129;-80
2023/06/12 02:02:07;;;;;;;7.45;4.80;;;;;;;;;;4391153;32;20101;-81
2023/06/12 02:04:32;;;;;;;5.55;4.85;;;;;;;;;;4391952;32;20046;-79
2023/06/12 02:06:57;;;;;;;6.85;4.80;;;;;;;;;;4399757;32;20061;-79
2023/06/12 02:09:23;;;;;;;7.12;4.78;;;;;;;;;;4400890;32;20026;-80
2023/06/12 02:11:48;;;;;;;9.35;5.07;;;;;;;;;;4402475;32;20030;-80
2023/06/12 02:14:13;;;;;;;6.25;5.47;;;;;;;;;;4399214;32;20027;-80
2023/06/12 02:16:38;;;;;;;8.32;5.00;;;;;;;;;;4402408;32;20079;-80
2023/06/12 02:19:04;;;;;;;7.97;4.53;;;;;;;;;;4405317;32;20027;-80
2023/06/12 02:21:29;;;;;;;10.55;4.95;;;;;;;;;;4401857;32;20515;-80
2023/06/12 02:23:55;;;;;;;9.60;4.75;;;;;;;;;;4402049;32;20042;-79
2023/06/12 02:26:20;;;;;;;5.53;4.55;;;;;;;;;;4394956;32;20058;-78
2023/06/12 02:28:47;;;;;;;8.45;5.30;;;;;;;;;;4394921;32;20031;-78
2023/06/12 02:31:12;;;;;;;7.62;4.62;;;;;;;;;;4393861;32;20080;-80
2023/06/12 02:33:38;;;;;;;9.93;5.40;;;;;;;;;;4395909;32;20074;-79
2023/06/12 02:36:04;;;;;;;6.97;5.03;;;;;;;;;;4401236;32;20026;-79
2023/06/12 02:38:30;;;;;;;7.80;5.32;;;;;;;;;;4399150;32;20027;-79
2023/06/12 02:40:57;;;;;;;7.70;5.33;;;;;;;;;;4396165;32;20369;-79
2023/06/12 02:43:22;;;;;;;8.95;5.53;;;;;;;;;;4394682;32;20180;-80
2023/06/12 02:45:47;;;;;;;7.20;5.40;;;;;;;;;;4392548;32;20035;-80
2023/06/12 02:48:12;;;;;;;12.60;5.67;;;;;;;;;;4392035;32;20481;-81
2023/06/12 02:50:37;;;;;;;5.93;4.87;;;;;;;;;;4393782;32;20123;-80
2023/06/12 02:53:03;;;;;;;8.02;4.87;;;;;;;;;;4392838;32;20085;-80
2023/06/12 02:55:28;;;;;;;10.02;5.65;;;;;;;;;;4392277;32;20030;-81
2023/06/12 02:57:53;;;;;;;11.00;5.17;;;;;;;;;;4393420;32;20360;-80
2023/06/12 03:00:18;;;;;;;12.13;5.75;;;;;;;;;;4390822;32;20181;-81
2023/06/12 03:02:44;;;;;;;9.80;5.18;;;;;;;;;;4393685;32;20057;-80
2023/06/12 03:05:14;;;;;;;8.10;5.93;;;;;;;;;;4392383;32;20030;-80
2023/06/12 03:07:40;;;;;;;8.07;5.22;;;;;;;;;;4391936;32;20027;-80
2023/06/12 03:10:06;;;;;;;10.70;5.55;;;;;;;;;;4392066;32;20395;-80
2023/06/12 03:12:31;;;;;;;12.35;6.12;;;;;;;;;;4391576;32;20491;-79
2023/06/12 03:14:58;;;;;;;9.32;5.40;;;;;;;;;;4391714;32;20030;-79
2023/06/12 03:17:23;;;;;;;7.07;5.40;;;;;;;;;;4390404;32;20348;-80
2023/06/12 03:19:48;;;;;;;8.75;5.65;;;;;;;;;;4390817;32;20034;-81
2023/06/12 03:22:13;;;;;;;8.95;5.60;;;;;;;;;;4391252;32;20401;-79
2023/06/12 03:24:38;;;;;;;10.93;6.25;;;;;;;;;;4391736;32;20064;-80
2023/06/12 03:27:04;;;;;;;6.43;4.87;;;;;;;;;;4391177;32;20042;-80
2023/06/12 03:29:29;;;;;;;6.55;5.30;;;;;;;;;;4391922;32;20038;-81
2023/06/12 03:31:55;;;;;;;10.25;7.10;;;;;;;;;;4393401;32;20034;-80
2023/06/12 03:34:20;;;;;;;10.25;5.95;;;;;;;;;;4392240;32;20060;-80
2023/06/12 03:36:46;;;;;;;7.23;5.63;;;;;;;;;;4390731;32;20060;-80
2023/06/12 03:39:11;;;;;;;6.57;4.80;;;;;;;;;;4392073;32;20158;-80
2023/06/12 03:41:49;;;;;;;10.48;5.30;;;;;;;;;;4390701;32;20435;-81
2023/06/12 03:44:15;;;;;;;7.43;5.25;;;;;;;;;;4393159;32;20584;-80
2023/06/12 03:46:40;;;;;;;8.88;5.47;;;;;;;;;;4390587;32;20126;-80
2023/06/12 03:49:05;;;;;;;18.10;6.07;;;;;;;;;;4390198;32;20030;-80
2023/06/12 03:51:33;;;;;;;8.52;6.12;;;;;;;;;;4392523;32;20157;-80
2023/06/12 03:53:58;;;;;;;8.07;6.15;;;;;;;;;;4394652;32;20038;-80
2023/06/12 03:56:23;;;;;;;8.15;5.43;;;;;;;;;;4393507;32;20089;-80
2023/06/12 03:58:49;;;;;;;10.10;5.57;;;;;;;;;;4392683;32;20046;-80
2023/06/12 04:01:14;;;;;;;7.07;5.37;;;;;;;;;;4395096;32;20034;-81
2023/06/12 04:03:39;;;;;;;6.27;5.43;;;;;;;;;;4392590;32;20068;-81
2023/06/12 04:06:05;;;;;;;9.53;5.37;;;;;;;;;;4392563;32;20513;-81
2023/06/12 04:08:30;;;;;;;10.60;5.95;;;;;;;;;;4390949;32;20119;-79
2023/06/12 04:10:55;;;;;;;8.85;5.30;;;;;;;;;;4390553;32;20053;-80
2023/06/12 04:13:20;;;;;;;7.50;4.90;;;;;;;;;;4390945;32;20119;-80
2023/06/12 04:15:47;;;;;;;14.63;5.70;;;;;;;;;;4392370;32;20039;-79
2023/06/12 04:18:12;;;;;;;7.28;5.62;;;;;;;;;;4393676;32;20035;-79
2023/06/12 04:20:38;;;;;;;7.72;5.43;;;;;;;;;;4396958;32;20026;-80
2023/06/12 04:23:04;;;;;;;9.77;6.30;;;;;;;;;;4396090;32;20034;-80
2023/06/12 04:25:30;;;;;;;8.07;5.68;;;;;;;;;;4393631;32;20464;-80
2023/06/12 04:27:56;;;;;;;8.98;4.78;;;;;;;;;;4395397;32;20091;-79
2023/06/12 04:30:21;;;;;;;8.68;5.22;;;;;;;;;;4392012;32;20062;-79
2023/06/12 04:32:47;;;;;;;8.77;5.27;;;;;;;;;;4388919;32;20101;-80
2023/06/12 04:35:12;;;;;;;7.62;4.95;;;;;;;;;;4390673;32;20160;-79
2023/06/12 04:37:38;;;;;;;10.25;5.35;;;;;;;;;;4389864;32;20050;-78
2023/06/12 04:40:04;;;;;;;8.32;5.20;;;;;;;;;;4390192;32;20424;-79
2023/06/12 04:42:31;;;;;;;13.93;6.03;;;;;;;;;;4390479;32;20052;-79
2023/06/12 04:44:59;;;;;;;7.97;5.68;;;;;;;;;;4390057;32;20035;-80
2023/06/12 04:47:24;;;;;;;10.73;6.07;;;;;;;;;;4391436;32;20158;-79
2023/06/12 04:49:57;;;;;;;10.43;6.05;;;;;;;;;;4403835;32;20100;-80
2023/06/12 04:52:23;;;;;;;7.90;4.93;;;;;;;;;;4394873;32;20099;-79
2023/06/12 04:54:48;;;;;;;12.95;6.60;;;;;;;;;;4390592;32;20031;-79
2023/06/12 04:57:16;;;;;;;10.02;6.05;;;;;;;;;;4393665;32;20097;-79
2023/06/12 04:59:42;;;;;;;15.63;6.93;;;;;;;;;;4392961;32;20142;-79
2023/06/12 05:02:08;;;;;;;14.20;6.07;;;;;;;;;;4393485;32;20030;-80
2023/06/12 05:04:35;;;;;;;9.48;5.60;;;;;;;;;;4394627;32;20065;-80
2023/06/12 05:07:03;;;;;;;9.68;5.65;;;;;;;;;;4393222;32;20065;-80
2023/06/12 05:09:28;;;;;;;5.85;5.10;;;;;;;;;;4393703;32;20337;-79
2023/06/12 05:11:53;;;;;;;8.53;5.77;;;;;;;;;;4394536;32;20046;-78
2023/06/12 05:14:18;;;;;;;8.70;5.77;;;;;;;;;;4392053;32;20134;-78
2023/06/12 05:16:46;;;;;;;11.90;6.43;;;;;;;;;;4392697;32;20150;-78
2023/06/12 05:19:12;;;;;;;9.68;5.25;;;;;;;;;;4392529;32;20475;-78
2023/06/12 05:21:39;;;;;;;11.85;5.57;;;;;;;;;;4394936;32;20049;-77
2023/06/12 05:24:04;;;;;;;10.30;5.62;;;;;;;;;;4391829;32;20158;-77
2023/06/12 05:26:29;;;;;;;15.73;5.28;;;;;;;;;;4392813;32;20057;-77
2023/06/12 05:28:55;;;;;;;11.40;5.40;;;;;;;;;;4390837;32;20034;-77
2023/06/12 05:31:20;;;;;;;11.27;6.03;;;;;;;;;;4387003;32;20139;-78
2023/06/12 05:33:45;;;;;;;11.20;5.43;;;;;;;;;;4388855;32;20061;-77
2023/06/12 05:36:10;;;;;;;7.25;5.57;;;;;;;;;;4394526;32;20200;-83
2023/06/12 05:38:37;;;;;;;11.02;5.82;;;;;;;;;;4397978;32;20034;-82
2023/06/12 05:41:02;;;;;;;8.52;5.43;;;;;;;;;;4395044;32;20098;-81
2023/06/12 05:43:27;;;;;;;8.35;4.75;;;;;;;;;;4393357;32;20356;-81
2023/06/12 05:45:53;;;;;;;9.38;5.05;;;;;;;;;;4393589;32;20487;-80
2023/06/12 05:48:18;;;;;;;15.40;5.57;;;;;;;;;;4393297;32;20088;-80
2023/06/12 05:50:43;;;;;;;14.30;5.55;;;;;;;;;;4392440;32;20146;-80
2023/06/12 05:53:09;;;;;;;9.73;5.18;;;;;;;;;;4386797;32;20117;-80
2023/06/12 05:55:34;;;;;;;11.05;5.85;;;;;;;;;;4393803;32;20137;-79
2023/06/12 05:57:59;;;;;;;7.75;5.85;;;;;;;;;;4392131;32;20034;-78
2023/06/12 06:00:24;;;;;;;14.25;6.37;;;;;;;;;;4392722;32;20077;-79
2023/06/12 06:02:50;;;;;;;10.55;6.10;;;;;;;;;;4393677;32;20053;-79
2023/06/12 06:05:16;;;;;;;9.65;5.60;;;;;;;;;;4390449;32;20050;-78
2023/06/12 06:07:41;;;;;;;13.07;6.12;;;;;;;;;;4390603;32;20065;-78
2023/06/12 06:10:07;;;;;;;9.73;5.35;;;;;;;;;;4384458;32;20132;-79
2023/06/12 06:12:32;;;;;;;10.52;5.80;;;;;;;;;;4383451;32;20039;-79
2023/06/12 06:14:58;;;;;;;9.52;5.82;;;;;;;;;;4391310;32;20329;-79
2023/06/12 06:17:23;;;;;;;9.45;5.60;;;;;;;;;;4390000;32;20322;-78
2023/06/12 06:19:49;;;;;;;9.98;5.65;;;;;;;;;;4389457;32;20038;-81
2023/06/12 06:22:17;;;;;;;12.63;6.18;;;;;;;;;;4393565;32;20084;-80
2023/06/12 06:24:42;;;;;;;13.35;6.50;;;;;;;;;;4393856;32;20035;-80
2023/06/12 06:27:08;;;;;;;9.93;5.32;;;;;;;;;;4398228;32;20368;-81
2023/06/12 06:29:33;;;;;;;9.98;5.25;;;;;;;;;;4392948;32;20030;-80
2023/06/12 06:31:58;;;;;;;12.13;5.55;;;;;;;;;;4394539;32;20352;-79
2023/06/12 06:34:25;;;;;;;12.05;5.93;;;;;;;;;;4397098;32;20038;-80
2023/06/12 06:36:50;;;;;;;10.02;5.32;;;;;;;;;;4395848;32;20098;-81
2023/06/12 06:39:15;;;;;;;8.23;5.53;;;;;;;;;;4392984;32;20458;-80
2023/06/12 06:41:41;;;;;;;10.25;5.78;;;;;;;;;;4393196;32;20062;-80
2023/06/12 06:44:06;;;;;;;10.57;5.85;;;;;;;;;;4390222;32;20055;-79
2023/06/12 06:46:31;;;;;;;11.12;5.80;;;;;;;;;;4391299;32;20031;-79
2023/06/12 06:48:56;;;;;;;8.93;5.43;;;;;;;;;;4392329;32;20026;-80
2023/06/12 06:51:21;;;;;;;13.30;5.87;;;;;;;;;;4391616;32;20057;-79
2023/06/12 06:53:47;;;;;;;7.97;5.72;;;;;;;;;;4392967;32;20061;-80
2023/06/12 06:56:12;;;;;;;9.13;5.07;;;;;;;;;;4393181;32;20057;-80
2023/06/12 06:58:37;;;;;;;11.65;5.87;;;;;;;;;;4391099;32;20579;-80
2023/06/12 07:01:03;;;;;;;8.48;5.40;;;;;;;;;;4391708;32;20469;-79
2023/06/12 07:03:28;;;;;;;11.23;5.70;;;;;;;;;;4391978;32;20105;-80
2023/06/12 07:05:53;;;;;;;7.33;5.07;;;;;;;;;;4391776;32;20027;-81
2023/06/12 07:08:18;;;;;;;9.70;5.87;;;;;;;;;;4395264;32;20119;-81
2023/06/12 07:10:44;;;;;;;10.05;6.00;;;;;;;;;;4394283;32;20090;-81
2023/06/12 07:13:09;;;;;;;6.57;5.60;;;;;;;;;;4392536;32;20420;-80
2023/06/12 07:15:34;;;;;;;13.17;5.97;;;;;;;;;;4392082;32;20099;-80
2023/06/12 07:17:59;;;;;;;8.05;5.65;;;;;;;;;;4391952;32;20122;-80
2023/06/12 07:20:24;;;;;;;10.93;6.10;;;;;;;;;;4391413;32;20475;-80
2023/06/12 07:22:50;;;;;;;8.37;5.03;;;;;;;;;;4391845;32;20035;-79
2023/06/12 07:25:15;;;;;;;8.63;5.53;;;;;;;;;;4390455;32;20143;-79
2023/06/12 07:27:41;;;;;;;10.10;6.37;;;;;;;;;;4391595;32;20062;-79
2023/06/12 07:30:06;;;;;;;10.52;5.57;;;;;;;;;;4390229;32;20377;-78
2023/06/12 07:32:31;;;;;;;7.93;5.70;;;;;;;;;;4391134;32;20060;-78
2023/06/12 07:34:57;;;;;;;6.53;4.90;;;;;;;;;;4392788;32;20435;-79
2023/06/12 07:37:22;;;;;;;8.07;5.37;;;;;;;;;;4392430;32;20424;-79
2023/06/12 07:39:47;;;;;;;10.48;5.93;;;;;;;;;;4390419;32;20149;-78
2023/06/12 07:42:13;;;;;;;7.33;5.30;;;;;;;;;;4392813;32;20034;-79
2023/06/12 07:44:40;;;;;;;6.55;5.47;;;;;;;;;;4404582;32;20532;-80
2023/06/12 07:47:05;;;;;;;13.05;6.47;;;;;;;;;;4403906;32;20042;-79
2023/06/12 07:49:31;;;;;;;10.90;5.90;;;;;;;;;;4405057;32;20080;-80
2023/06/12 07:51:56;;;;;;;16.73;6.80;;;;;;;;;;4393952;32;20408;-78
2023/06/12 07:54:21;;;;;;;9.97;5.70;;;;;;;;;;4392359;32;20074;-80
2023/06/12 07:56:46;;;;;;;9.90;5.50;;;;;;;;;;4391781;32;20188;-79
2023/06/12 07:59:12;;;;;;;9.13;5.17;;;;;;;;;;4392609;32;20528;-79
2023/06/12 08:01:37;;;;;;;9.57;5.90;;;;;;;;;;4393154;32;20130;-79
2023/06/12 08:04:05;;;;;;;15.43;5.80;;;;;;;;;;4393472;32;20046;-78
2023/06/12 08:06:33;;;;;;;6.72;5.32;;;;;;;;;;4393129;32;20047;-80
2023/06/12 08:08:59;;;;;;;8.80;5.80;;;;;;;;;;4387646;32;20122;-77
2023/06/12 08:11:25;;;;;;;6.20;5.05;;;;;;;;;;4385074;32;20035;-78
2023/06/12 08:13:50;;;;;;;9.38;5.00;;;;;;;;;;4389007;32;20054;-79
2023/06/12 08:16:16;;;;;;;9.52;5.43;;;;;;;;;;4380439;32;20035;-79
2023/06/12 08:18:42;;;;;;;9.20;5.43;;;;;;;;;;4379427;32;20066;-78
2023/06/12 08:21:07;;;;;;;9.10;5.25;;;;;;;;;;4382129;32;20487;-78
2023/06/12 08:23:33;;;;;;;10.55;5.28;;;;;;;;;;4384924;32;20053;-80
2023/06/12 08:25:58;;;;;;;13.62;5.85;;;;;;;;;;4382974;32;20046;-79
2023/06/12 08:28:23;;;;;;;9.50;5.07;;;;;;;;;;4389865;32;20049;-80
2023/06/12 08:30:50;;;;;;;8.23;5.63;;;;;;;;;;4385556;32;20053;-79
2023/06/12 08:33:15;;;;;;;8.95;5.60;;;;;;;;;;4380032;32;20192;-79
2023/06/12 08:35:41;;;;;;;12.45;5.93;;;;;;;;;;4380735;32;20074;-78
2023/06/12 08:38:06;;;;;;;9.38;5.10;;;;;;;;;;4382604;32;20028;-78
2023/06/12 08:40:32;;;;;;;6.35;5.53;;;;;;;;;;4381266;32;20061;-77
2023/06/12 08:42:58;;;;;;;10.40;5.32;;;;;;;;;;4380898;32;20065;-80
2023/06/12 08:45:26;;;;;;;11.85;5.00;;;;;;;;;;4384762;32;20056;-79
2023/06/12 08:47:52;;;;;;;6.72;4.90;;;;;;;;;;4379081;32;20074;-79
2023/06/12 08:50:18;;;;;;;7.97;5.07;;;;;;;;;;4383408;32;20053;-80
2023/06/12 08:52:44;;;;;;;8.07;4.97;;;;;;;;;;4389334;32;20481;-79
2023/06/12 08:55:11;;;;;;;7.25;5.15;;;;;;;;;;4390544;32;20333;-80
2023/06/12 08:57:37;;;;;;;8.82;5.18;;;;;;;;;;4390194;32;20400;-80
2023/06/12 09:00:06;;;;;;;8.00;5.15;;;;;;;;;;4390835;32;20080;-80
2023/06/12 09:02:31;;;;;;;14.82;5.68;;;;;;;;;;4388323;32;20105;-79
2023/06/12 09:05:01;;;;;;;6.97;5.20;;;;;;;;;;4389981;32;20097;-79
2023/06/12 09:07:26;;;;;;;10.07;5.20;;;;;;;;;;4381782;32;20135;-79
2023/06/12 09:09:52;;;;;;;8.88;4.87;;;;;;;;;;4375441;32;20142;-77
2023/06/12 09:12:17;;;;;;;11.68;4.80;;;;;;;;;;4375210;32;20101;-80
2023/06/12 09:14:48;;;;;;;7.80;5.33;;;;;;;;;;4375706;32;20039;-78
2023/06/12 09:17:13;;;;;;;10.77;4.68;;;;;;;;;;4391956;32;20178;-80
2023/06/12 09:19:45;;;;;;;17.87;5.63;;;;;;;;;;4390433;32;20054;-81
2023/06/12 09:22:11;;;;;;;7.87;4.72;;;;;;;;;;4390118;32;20192;-80
2023/06/12 09:24:36;;;;;;;9.52;4.80;;;;;;;;;;4393158;32;20042;-82
2023/06/12 09:27:02;;;;;;;5.40;4.40;;;;;;;;;;4390480;32;20070;-79
2023/06/12 09:29:31;;;;;;;11.52;4.07;;;;;;;;;;4393143;32;20121;-79
2023/06/12 09:32:00;;;;;;;7.30;4.60;;;;;;;;;;4391695;32;20026;-80
2023/06/12 09:34:25;;;;;;;24.23;5.62;;;;;;;;;;4393405;32;20057;-81
2023/06/12 09:36:50;;;;;;;8.60;4.65;;;;;;;;;;4393525;32;20031;-80
2023/06/12 09:39:23;;;;;;;8.30;4.75;;;;;;;;;;4394213;32;20396;-79
2023/06/12 09:41:49;;;;;;;9.23;5.28;;;;;;;;;;4394127;32;20051;-81
2023/06/12 09:44:19;;;;;;;8.85;4.87;;;;;;;;;;4392243;32;20061;-81
2023/06/12 09:46:45;;;;;;;7.45;4.32;;;;;;;;;;4395323;32;20035;-81
2023/06/12 09:49:10;;;;;;;5.87;4.10;;;;;;;;;;4394024;32;20099;-81
2023/06/12 09:51:36;;;;;;;6.85;4.65;;;;;;;;;;4397984;32;20049;-78
2023/06/12 09:54:03;;;;;;;7.90;4.37;;;;;;;;;;4392427;32;20517;-81
2023/06/12 09:56:28;;;;;;;10.57;5.10;;;;;;;;;;4391072;32;20114;-74
2023/06/12 09:58:56;;;;;;;9.50;4.28;;;;;;;;;;4392148;32;20027;-78
2023/06/12 10:01:21;;;;;;;7.18;4.10;;;;;;;;;;4389324;32;20086;-76
2023/06/12 10:03:50;;;;;;;5.62;4.07;;;;;;;;;;4389209;32;20092;-78
2023/06/12 10:06:17;;;;;;;7.50;4.57;;;;;;;;;;4389564;32;20082;-79
2023/06/12 10:08:42;;;;;;;6.28;3.87;;;;;;;;;;4391622;32;20061;-79
2023/06/12 10:11:08;;;;;;;4.97;3.97;;;;;;;;;;4393452;32;20072;-79
2023/06/12 10:13:34;;;;;;;10.38;4.75;;;;;;;;;;4380213;32;20352;-81
2023/06/12 10:16:00;;;;;;;5.68;3.90;;;;;;;;;;4377625;32;20035;-80
2023/06/12 10:18:26;;;;;;;16.25;14.90;;;;;;;;;;4377316;32;20428;-79
2023/06/12 10:20:53;;;;;;;5.20;4.18;;;;;;;;;;4391417;32;20066;-78
2023/06/12 10:23:18;;;;;;;7.15;4.12;;;;;;;;;;4391944;32;20030;-78
2023/06/12 10:25:44;;;;;;;7.68;4.07;;;;;;;;;;4392545;32;20046;-78
2023/06/12 10:28:11;;;;;;;5.78;4.28;;;;;;;;;;4397385;32;20042;-79
2023/06/12 10:30:36;;;;;;;5.32;3.70;;;;;;;;;;4404018;32;20031;-77
2023/06/12 10:33:13;;;;;;;7.10;4.28;;;;;;;;;;4402456;32;20066;-78
2023/06/12 10:35:38;;;;;;;9.80;4.35;;;;;;;;;;4391044;32;20031;-78
2023/06/12 10:38:03;;;;;;;12.23;4.10;;;;;;;;;;4392169;32;20026;-78
2023/06/12 10:40:30;;;;;;;5.35;3.95;;;;;;;;;;4392761;32;20427;-79
2023/06/12 10:43:03;;;;;;;9.10;4.22;;;;;;;;;;4391744;32;20030;-77
2023/06/12 10:45:29;;;;;;;7.78;3.97;;;;;;;;;;4395013;32;20123;-78
2023/06/12 10:47:58;;;;;;;7.18;3.90;;;;;;;;;;4394597;32;20061;-79
2023/06/12 10:50:25;;;;;;;10.60;4.72;;;;;;;;;;4396926;32;20085;-79
2023/06/12 10:52:56;;;;;;;4.80;4.10;;;;;;;;;;4393583;32;20405;-76
2023/06/12 10:55:23;;;;;;;15.82;4.97;;;;;;;;;;4392790;32;20426;-74
2023/06/12 10:57:52;;;;;;;6.60;4.25;;;;;;;;;;4389819;32;20439;-79
2023/06/12 11:00:18;;;;;;;6.78;3.85;;;;;;;;;;4391153;32;20054;-78
2023/06/12 11:02:44;;;;;;;5.55;3.40;;;;;;;;;;4390897;32;20145;-78
2023/06/12 11:05:09;;;;;;;5.68;3.80;;;;;;;;;;4393317;32;20057;-78
2023/06/12 11:07:36;;;;;;;8.80;3.80;;;;;;;;;;4390933;32;20424;-77
2023/06/12 11:10:08;;;;;;;5.20;4.25;;;;;;;;;;4390714;32;20146;-76
2023/06/12 11:12:33;;;;;;;7.93;3.83;;;;;;;;;;4393348;32;20023;-80
2023/06/12 11:14:58;;;;;;;5.00;4.22;;;;;;;;;;4390785;32;20077;-77
2023/06/12 11:17:23;;;;;;;8.13;4.20;;;;;;;;;;4391082;32;20065;-79
2023/06/12 11:19:48;;;;;;;7.03;4.00;;;;;;;;;;4389558;32;20081;-79
2023/06/12 11:22:14;;;;;;;8.27;3.73;;;;;;;;;;4390683;32;20161;-76
2023/06/12 11:24:39;;;;;;;5.35;3.50;;;;;;;;;;4391893;32;20147;-77
2023/06/12 11:27:04;;;;;;;8.10;3.83;;;;;;;;;;4391601;32;20034;-77
2023/06/12 11:29:34;;;;;;;9.38;3.60;;;;;;;;;;4390479;32;20111;-78
2023/06/12 11:32:01;;;;;;;5.85;3.53;;;;;;;;;;4392075;32;20145;-79
2023/06/12 11:34:36;;;;;;;5.50;3.85;;;;;;;;;;4391804;32;20038;-78
2023/06/12 11:37:13;;;;;;;8.93;3.83;;;;;;;;;;4391230;32;20079;-77
2023/06/12 11:39:38;;;;;;;6.50;3.97;;;;;;;;;;4390475;32;20039;-77
2023/06/12 11:42:04;;;;;;;4.25;3.50;;;;;;;;;;4390174;32;20404;-78
2023/06/12 11:44:29;;;;;;;5.30;3.87;;;;;;;;;;4392136;32;20356;-79
2023/06/12 11:46:57;;;;;;;7.17;3.80;;;;;;;;;;4390784;32;20030;-78
2023/06/12 11:49:22;;;;;;;5.55;3.90;;;;;;;;;;4392145;32;20061;-78
2023/06/12 11:51:48;;;;;;;5.77;4.00;;;;;;;;;;4389289;32;20026;-77
2023/06/12 11:54:14;;;;;;;7.25;3.83;;;;;;;;;;4391624;32;20126;-77
2023/06/12 11:56:41;;;;;;;4.72;4.10;;;;;;;;;;4391293;32;20458;-78
2023/06/12 11:59:06;;;;;;;6.82;3.90;;;;;;;;;;4384504;32;20027;-79
2023/06/12 12:01:36;;;;;;;7.43;3.85;;;;;;;;;;4374652;32;20031;-79
2023/06/12 12:04:03;;;;;;;7.03;4.30;;;;;;;;;;4378220;32;20039;-78
2023/06/12 12:06:29;;;;;;;5.25;3.50;;;;;;;;;;4376162;32;20077;-79
2023/06/12 12:08:55;;;;;;;9.20;4.68;;;;;;;;;;4388797;32;20082;-81
2023/06/12 12:11:32;;;;;;;5.85;4.03;;;;;;;;;;4384426;32;20034;-78
2023/06/12 12:13:58;;;;;;;5.10;3.67;;;;;;;;;;4376285;32;20023;-78
2023/06/12 12:16:24;;;;;;;6.87;4.12;;;;;;;;;;4378158;32;20053;-78
2023/06/12 12:18:50;;;;;;;9.27;4.00;;;;;;;;;;4378142;32;20031;-77
2023/06/12 12:21:19;;;;;;;6.62;3.90;;;;;;;;;;4376517;32;20404;-80
2023/06/12 12:23:45;;;;;;;6.28;3.87;;;;;;;;;;4377581;32;20062;-76
2023/06/12 12:26:11;;;;;;;4.22;3.50;;;;;;;;;;4376292;32;20035;-78
2023/06/12 12:28:36;;;;;;;5.03;4.18;;;;;;;;;;4378339;32;20038;-79
2023/06/12 12:31:02;;;;;;;4.67;4.17;;;;;;;;;;4383106;32;20057;-78
2023/06/12 12:33:27;;;;;;;6.00;4.20;;;;;;;;;;4388401;32;20192;-78
2023/06/12 12:35:53;;;;;;;7.97;4.17;;;;;;;;;;4382926;32;20087;-79
2023/06/12 12:38:18;;;;;;;7.53;4.20;;;;;;;;;;4378510;32;20139;-80
2023/06/12 12:40:43;;;;;;;4.90;4.20;;;;;;;;;;4378626;32;20073;-80
2023/06/12 12:43:08;;;;;;;6.43;4.03;;;;;;;;;;4377736;32;20560;-80
2023/06/12 12:45:34;;;;;;;6.20;4.53;;;;;;;;;;4378316;32;20528;-79
2023/06/12 12:47:59;;;;;;;4.97;4.47;;;;;;;;;;4376519;32;20031;-79
2023/06/12 12:50:25;;;;;;;5.22;4.12;;;;;;;;;;4380157;32;20412;-79
2023/06/12 12:52:50;;;;;;;5.70;3.87;;;;;;;;;;4391502;32;20023;-78
2023/06/12 12:55:15;;;;;;;5.57;3.87;;;;;;;;;;4392433;32;20035;-79
2023/06/12 12:57:42;;;;;;;5.63;4.20;;;;;;;;;;4390749;32;20031;-78
2023/06/12 13:00:12;;;;;;;7.85;4.35;;;;;;;;;;4379783;32;20027;-79
2023/06/12 13:02:38;;;;;;;5.20;4.03;;;;;;;;;;4375984;32;20023;-79
2023/06/12 13:05:04;;;;;;;4.93;3.83;;;;;;;;;;4390093;32;20044;-79
2023/06/12 13:07:30;;;;;;;8.93;4.05;;;;;;;;;;4392009;32;20052;-78
2023/06/12 13:09:56;;;;;;;4.78;4.00;;;;;;;;;;4395306;32;20069;-80
2023/06/12 13:12:21;;;;;;;6.32;4.45;;;;;;;;;;4396695;32;20121;-78
2023/06/12 13:14:47;;;;;;;7.03;4.37;;;;;;;;;;4393073;32;20092;-78
2023/06/12 13:17:13;;;;;;;6.93;4.32;;;;;;;;;;4395890;32;20157;-79
2023/06/12 13:19:38;;;;;;;5.25;4.15;;;;;;;;;;4394387;32;20027;-79
2023/06/12 13:22:03;;;;;;;6.57;4.60;;;;;;;;;;4395571;32;20047;-79
2023/06/12 13:24:29;;;;;;;5.82;4.60;;;;;;;;;;4395698;32;20138;-79
2023/06/12 13:26:54;;;;;;;5.93;4.27;;;;;;;;;;4398907;32;20049;-79
2023/06/12 13:29:19;;;;;;;6.20;4.33;;;;;;;;;;4402692;32;20153;-77
2023/06/12 13:31:45;;;;;;;7.70;4.23;;;;;;;;;;4401571;32;20118;-77
2023/06/12 13:34:10;;;;;;;5.50;4.60;;;;;;;;;;4400534;32;20405;-81
2023/06/12 13:36:35;;;;;;;6.27;4.40;;;;;;;;;;4385796;32;20024;-79
2023/06/12 13:39:00;;;;;;;5.03;4.27;;;;;;;;;;4387047;32;20130;-78
2023/06/12 13:41:26;;;;;;;8.38;4.95;;;;;;;;;;4394995;32;20165;-79
2023/06/12 13:43:51;;;;;;;7.78;4.40;;;;;;;;;;4394057;32;20126;-79
2023/06/12 13:46:16;;;;;;;9.52;4.70;;;;;;;;;;4393857;32;20061;-80
2023/06/12 13:48:42;;;;;;;7.87;4.22;;;;;;;;;;4393213;32;20088;-79
2023/06/12 13:51:07;;;;;;;7.22;4.60;;;;;;;;;;4393178;32;20088;-80
2023/06/12 13:53:33;;;;;;;8.90;4.10;;;;;;;;;;4393797;32;20030;-80
2023/06/12 13:55:58;;;;;;;18.80;5.40;;;;;;;;;;4393574;32;20068;-79
2023/06/12 13:58:24;;;;;;;5.75;4.60;;;;;;;;;;4392919;32;20543;-79
2023/06/12 14:00:49;;;;;;;4.40;4.00;;;;;;;;;;4392966;32;20084;-79
2023/06/12 14:03:15;;;;;;;6.40;5.78;;;;;;;;;;4392698;32;20026;-79
2023/06/12 14:05:40;;;;;;;6.07;4.53;;;;;;;;;;4392712;32;20090;-80
2023/06/12 14:08:05;;;;;;;4.93;4.43;;;;;;;;;;4392212;32;20080;-79
2023/06/12 14:10:31;;;;;;;8.07;4.68;;;;;;;;;;4392164;32;20674;-79
2023/06/12 14:12:56;;;;;;;7.05;4.60;;;;;;;;;;4391080;32;20034;-78
2023/06/12 14:15:23;;;;;;;6.32;4.68;;;;;;;;;;4392059;32;20062;-79
2023/06/12 14:17:48;;;;;;;7.15;4.97;;;;;;;;;;4391130;32;20102;-78
2023/06/12 14:20:13;;;;;;;9.30;5.05;;;;;;;;;;4392194;32;20069;-79
2023/06/12 14:22:39;;;;;;;8.43;4.40;;;;;;;;;;4392251;32;20349;-80
2023/06/12 14:25:05;;;;;;;8.90;4.07;;;;;;;;;;4392369;32;20125;-78
2023/06/12 14:27:30;;;;;;;5.45;4.22;;;;;;;;;;4391093;32;20412;-80
2023/06/12 14:29:55;;;;;;;11.13;4.53;;;;;;;;;;4392573;32;20027;-79
2023/06/12 14:32:20;;;;;;;6.07;4.40;;;;;;;;;;4393877;32;20174;-78
2023/06/12 14:34:46;;;;;;;7.57;4.57;;;;;;;;;;4397948;32;20065;-80